sensor_id;sensor_type;location;lat;lon;timestamp;pressure;altitude;pressure_sealevel;temperature;humidity
75414;BME280;64758;52.122;5.404;2023-04-15T00:00:59;101103.38;;;8.04;70.64
75414;BME280;64758;52.122;5.404;2023-04-15T00:03:26;101095.41;;;7.96;70.35
75414;BME280;64758;52.122;5.404;2023-04-15T00:05:54;101103.50;;;8.03;70.67
75414;BME280;64758;52.122;5.404;2023-04-15T00:08:20;101102.38;;;7.97;70.39
75414;BME280;64758;52.122;5.404;2023-04-15T00:10:47;101110.63;;;8.02;70.27
75414;BME280;64758;52.122;5.404;2023-04-15T00:13:14;101101.69;;;7.95;70.00
75414;BME280;64758;52.122;5.404;2023-04-15T00:15:41;101104.03;;;7.98;70.54
75414;BME280;64758;52.122;5.404;2023-04-15T00:18:08;101099.88;;;7.96;70.51
75414;BME280;64758;52.122;5.404;2023-04-15T00:20:35;101106.81;;;7.97;70.16
75414;BME280;64758;52.122;5.404;2023-04-15T00:23:02;101103.84;;;8.00;70.58
75414;BME280;64758;52.122;5.404;2023-04-15T00:25:29;101106.81;;;7.97;70.12
75414;BME280;64758;52.122;5.404;2023-04-15T00:27:56;101100.19;;;7.93;70.55
75414;BME280;64758;52.122;5.404;2023-04-15T00:30:22;101104.50;;;7.94;70.70
75414;BME280;64758;52.122;5.404;2023-04-15T00:32:49;101105.97;;;7.88;70.75
75414;BME280;64758;52.122;5.404;2023-04-15T00:35:16;101101.34;;;7.90;70.65
75414;BME280;64758;52.122;5.404;2023-04-15T00:37:42;101097.72;;;7.83;71.05
75414;BME280;64758;52.122;5.404;2023-04-15T00:40:12;101106.13;;;7.79;72.00
75414;BME280;64758;52.122;5.404;2023-04-15T00:42:39;101099.47;;;7.67;71.84
75414;BME280;64758;52.122;5.404;2023-04-15T00:45:06;101100.94;;;7.53;72.75
75414;BME280;64758;52.122;5.404;2023-04-15T00:47:35;101109.31;;;7.41;73.66
75414;BME280;64758;52.122;5.404;2023-04-15T00:50:02;101115.41;;;7.42;74.52
75414;BME280;64758;52.122;5.404;2023-04-15T00:52:30;101107.78;;;7.31;74.56
75414;BME280;64758;52.122;5.404;2023-04-15T00:54:57;101107.78;;;7.31;74.43
75414;BME280;64758;52.122;5.404;2023-04-15T00:57:25;101120.66;;;7.34;74.90
75414;BME280;64758;52.122;5.404;2023-04-15T00:59:52;101110.69;;;7.20;75.42
75414;BME280;64758;52.122;5.404;2023-04-15T01:02:20;101121.25;;;7.20;76.04
75414;BME280;64758;52.122;5.404;2023-04-15T01:04:48;101110.25;;;6.99;77.01
75414;BME280;64758;52.122;5.404;2023-04-15T01:07:15;101119.28;;;6.88;76.65
75414;BME280;64758;52.122;5.404;2023-04-15T01:09:42;101122.72;;;6.89;77.63
75414;BME280;64758;52.122;5.404;2023-04-15T01:12:11;101120.25;;;6.87;77.80
75414;BME280;64758;52.122;5.404;2023-04-15T01:14:38;101115.75;;;6.80;77.90
75414;BME280;64758;52.122;5.404;2023-04-15T01:17:05;101115.25;;;6.76;78.21
75414;BME280;64758;52.122;5.404;2023-04-15T01:19:31;101114.88;;;6.71;78.74
75414;BME280;64758;52.122;5.404;2023-04-15T01:21:58;101109.69;;;6.62;79.91
75414;BME280;64758;52.122;5.404;2023-04-15T01:24:25;101125.06;;;6.66;79.13
75414;BME280;64758;52.122;5.404;2023-04-15T01:26:53;101113.84;;;6.64;78.38
75414;BME280;64758;52.122;5.404;2023-04-15T01:29:20;101119.00;;;6.74;78.51
75414;BME280;64758;52.122;5.404;2023-04-15T01:31:51;101111.75;;;6.76;78.42
75414;BME280;64758;52.122;5.404;2023-04-15T01:34:19;101113.97;;;6.63;78.56
75414;BME280;64758;52.122;5.404;2023-04-15T01:36:46;101110.09;;;6.49;79.33
75414;BME280;64758;52.122;5.404;2023-04-15T01:39:13;101111.81;;;6.58;78.95
75414;BME280;64758;52.122;5.404;2023-04-15T01:41:39;101100.94;;;6.61;78.79
75414;BME280;64758;52.122;5.404;2023-04-15T01:44:07;101113.22;;;6.70;78.22
75414;BME280;64758;52.122;5.404;2023-04-15T01:46:34;101114.34;;;6.68;78.16
75414;BME280;64758;52.122;5.404;2023-04-15T01:49:01;101119.63;;;6.68;77.86
75414;BME280;64758;52.122;5.404;2023-04-15T01:51:28;101122.25;;;6.68;77.76
75414;BME280;64758;52.122;5.404;2023-04-15T01:53:54;101118.50;;;6.70;77.98
75414;BME280;64758;52.122;5.404;2023-04-15T01:56:24;101117.28;;;6.65;78.42
75414;BME280;64758;52.122;5.404;2023-04-15T01:58:51;101119.56;;;6.60;79.02
75414;BME280;64758;52.122;5.404;2023-04-15T02:01:18;101115.19;;;6.51;78.61
75414;BME280;64758;52.122;5.404;2023-04-15T02:03:46;101116.66;;;6.45;79.95
75414;BME280;64758;52.122;5.404;2023-04-15T02:06:13;101118.44;;;6.45;79.34
75414;BME280;64758;52.122;5.404;2023-04-15T02:08:40;101117.34;;;6.47;78.83
75414;BME280;64758;52.122;5.404;2023-04-15T02:11:06;101119.44;;;6.44;79.10
75414;BME280;64758;52.122;5.404;2023-04-15T02:13:33;101124.56;;;6.45;78.81
75414;BME280;64758;52.122;5.404;2023-04-15T02:16:00;101121.09;;;6.45;78.95
75414;BME280;64758;52.122;5.404;2023-04-15T02:18:26;101119.81;;;6.49;78.86
75414;BME280;64758;52.122;5.404;2023-04-15T02:20:53;101121.56;;;6.40;79.33
75414;BME280;64758;52.122;5.404;2023-04-15T02:23:20;101136.25;;;6.43;79.39
75414;BME280;64758;52.122;5.404;2023-04-15T02:25:47;101137.38;;;6.40;79.45
75414;BME280;64758;52.122;5.404;2023-04-15T02:28:20;101143.75;;;6.30;79.63
75414;BME280;64758;52.122;5.404;2023-04-15T02:30:48;101136.44;;;6.24;80.17
75414;BME280;64758;52.122;5.404;2023-04-15T02:33:20;101144.28;;;6.16;80.90
75414;BME280;64758;52.122;5.404;2023-04-15T02:35:46;101145.94;;;6.17;81.05
75414;BME280;64758;52.122;5.404;2023-04-15T02:38:13;101149.16;;;6.11;80.97
75414;BME280;64758;52.122;5.404;2023-04-15T02:40:42;101146.16;;;6.06;81.53
75414;BME280;64758;52.122;5.404;2023-04-15T02:43:08;101159.13;;;6.17;80.93
75414;BME280;64758;52.122;5.404;2023-04-15T02:45:35;101163.63;;;6.25;81.15
75414;BME280;64758;52.122;5.404;2023-04-15T02:48:01;101159.78;;;6.19;81.03
75414;BME280;64758;52.122;5.404;2023-04-15T02:50:32;101153.59;;;6.11;81.20
75414;BME280;64758;52.122;5.404;2023-04-15T02:52:59;101165.88;;;6.02;81.45
75414;BME280;64758;52.122;5.404;2023-04-15T02:55:27;101169.50;;;6.01;81.38
75414;BME280;64758;52.122;5.404;2023-04-15T02:57:54;101168.72;;;5.91;81.56
75414;BME280;64758;52.122;5.404;2023-04-15T03:00:21;101174.38;;;5.69;82.68
75414;BME280;64758;52.122;5.404;2023-04-15T03:02:47;101178.56;;;5.62;82.90
75414;BME280;64758;52.122;5.404;2023-04-15T03:05:17;101167.25;;;5.52;83.62
75414;BME280;64758;52.122;5.404;2023-04-15T03:07:44;101176.53;;;5.56;84.00
75414;BME280;64758;52.122;5.404;2023-04-15T03:10:11;101171.97;;;5.49;84.40
75414;BME280;64758;52.122;5.404;2023-04-15T03:12:37;101170.00;;;5.51;84.32
75414;BME280;64758;52.122;5.404;2023-04-15T03:15:05;101171.03;;;5.40;85.33
75414;BME280;64758;52.122;5.404;2023-04-15T03:17:32;101183.91;;;5.43;85.49
75414;BME280;64758;52.122;5.404;2023-04-15T03:19:59;101187.41;;;5.34;85.45
75414;BME280;64758;52.122;5.404;2023-04-15T03:22:26;101190.19;;;5.33;85.66
75414;BME280;64758;52.122;5.404;2023-04-15T03:24:53;101192.34;;;5.47;85.61
75414;BME280;64758;52.122;5.404;2023-04-15T03:27:19;101185.69;;;5.52;85.55
75414;BME280;64758;52.122;5.404;2023-04-15T03:29:46;101189.97;;;5.53;85.40
75414;BME280;64758;52.122;5.404;2023-04-15T03:32:12;101188.22;;;5.35;85.83
75414;BME280;64758;52.122;5.404;2023-04-15T03:34:40;101195.56;;;5.41;86.26
75414;BME280;64758;52.122;5.404;2023-04-15T03:37:07;101200.13;;;5.48;86.21
75414;BME280;64758;52.122;5.404;2023-04-15T03:39:34;101198.06;;;5.42;86.56
75414;BME280;64758;52.122;5.404;2023-04-15T03:42:01;101196.72;;;5.29;86.21
75414;BME280;64758;52.122;5.404;2023-04-15T03:44:29;101197.72;;;5.18;86.29
75414;BME280;64758;52.122;5.404;2023-04-15T03:46:55;101207.69;;;5.15;86.54
75414;BME280;64758;52.122;5.404;2023-04-15T03:49:22;101213.81;;;5.15;86.28
75414;BME280;64758;52.122;5.404;2023-04-15T03:51:49;101201.06;;;5.11;85.89
75414;BME280;64758;52.122;5.404;2023-04-15T03:54:16;101220.34;;;5.11;85.73
75414;BME280;64758;52.122;5.404;2023-04-15T03:56:42;101223.28;;;4.99;86.39
75414;BME280;64758;52.122;5.404;2023-04-15T03:59:09;101214.69;;;4.97;87.11
75414;BME280;64758;52.122;5.404;2023-04-15T04:01:36;101218.56;;;4.93;87.27
75414;BME280;64758;52.122;5.404;2023-04-15T04:04:03;101219.97;;;4.88;87.47
75414;BME280;64758;52.122;5.404;2023-04-15T04:06:30;101223.16;;;4.91;87.80
75414;BME280;64758;52.122;5.404;2023-04-15T04:08:56;101227.56;;;5.00;87.99
75414;BME280;64758;52.122;5.404;2023-04-15T04:11:23;101229.50;;;4.98;87.34
75414;BME280;64758;52.122;5.404;2023-04-15T04:13:49;101228.13;;;4.85;87.28
75414;BME280;64758;52.122;5.404;2023-04-15T04:16:16;101239.66;;;4.74;87.33
75414;BME280;64758;52.122;5.404;2023-04-15T04:18:43;101236.16;;;4.74;88.14
75414;BME280;64758;52.122;5.404;2023-04-15T04:21:09;101239.22;;;4.79;87.77
75414;BME280;64758;52.122;5.404;2023-04-15T04:23:36;101241.84;;;4.79;88.22
75414;BME280;64758;52.122;5.404;2023-04-15T04:26:03;101240.47;;;4.75;87.72
75414;BME280;64758;52.122;5.404;2023-04-15T04:28:29;101256.41;;;4.73;87.99
75414;BME280;64758;52.122;5.404;2023-04-15T04:30:56;101248.38;;;4.65;88.15
75414;BME280;64758;52.122;5.404;2023-04-15T04:33:22;101239.66;;;4.55;88.31
75414;BME280;64758;52.122;5.404;2023-04-15T04:35:49;101258.47;;;4.60;88.56
75414;BME280;64758;52.122;5.404;2023-04-15T04:38:15;101256.53;;;4.43;89.18
75414;BME280;64758;52.122;5.404;2023-04-15T04:40:42;101257.47;;;4.52;89.10
75414;BME280;64758;52.122;5.404;2023-04-15T04:43:08;101268.97;;;4.51;89.12
75414;BME280;64758;52.122;5.404;2023-04-15T04:45:35;101273.81;;;4.46;89.30
75414;BME280;64758;52.122;5.404;2023-04-15T04:48:02;101288.63;;;4.47;89.01
75414;BME280;64758;52.122;5.404;2023-04-15T04:50:33;101293.34;;;4.43;88.77
75414;BME280;64758;52.122;5.404;2023-04-15T04:53:00;101286.09;;;4.36;89.55
75414;BME280;64758;52.122;5.404;2023-04-15T04:55:27;101290.13;;;4.30;89.97
75414;BME280;64758;52.122;5.404;2023-04-15T04:57:53;101293.00;;;4.18;90.47
75414;BME280;64758;52.122;5.404;2023-04-15T05:00:20;101305.16;;;4.19;90.79
75414;BME280;64758;52.122;5.404;2023-04-15T05:02:46;101299.19;;;4.07;91.41
75414;BME280;64758;52.122;5.404;2023-04-15T05:05:13;101306.81;;;4.20;91.47
75414;BME280;64758;52.122;5.404;2023-04-15T05:07:40;101309.72;;;4.17;91.88
75414;BME280;64758;52.122;5.404;2023-04-15T05:10:07;101315.41;;;4.22;91.95
75414;BME280;64758;52.122;5.404;2023-04-15T05:12:35;101320.16;;;4.37;92.16
75414;BME280;64758;52.122;5.404;2023-04-15T05:15:03;101326.88;;;4.60;91.58
75414;BME280;64758;52.122;5.404;2023-04-15T05:17:29;101329.66;;;4.78;90.56
75414;BME280;64758;52.122;5.404;2023-04-15T05:19:58;101313.00;;;4.68;90.09
75414;BME280;64758;52.122;5.404;2023-04-15T05:22:24;101326.59;;;4.73;90.63
75414;BME280;64758;52.122;5.404;2023-04-15T05:24:51;101332.16;;;4.89;90.64
75414;BME280;64758;52.122;5.404;2023-04-15T05:27:18;101342.94;;;5.04;90.89
75414;BME280;64758;52.122;5.404;2023-04-15T05:29:44;101334.63;;;5.37;90.92
75414;BME280;64758;52.122;5.404;2023-04-15T05:32:11;101344.28;;;5.65;90.65
75414;BME280;64758;52.122;5.404;2023-04-15T05:34:37;101346.72;;;5.95;90.12
75414;BME280;64758;52.122;5.404;2023-04-15T05:37:04;101349.13;;;6.16;88.76
75414;BME280;64758;52.122;5.404;2023-04-15T05:39:31;101348.16;;;6.17;88.40
75414;BME280;64758;52.122;5.404;2023-04-15T05:41:58;101366.19;;;6.21;88.66
75414;BME280;64758;52.122;5.404;2023-04-15T05:44:25;101368.25;;;6.18;87.91
75414;BME280;64758;52.122;5.404;2023-04-15T05:46:52;101366.38;;;6.10;88.35
75414;BME280;64758;52.122;5.404;2023-04-15T05:49:18;101368.91;;;6.02;88.00
75414;BME280;64758;52.122;5.404;2023-04-15T05:51:46;101377.78;;;6.01;89.05
75414;BME280;64758;52.122;5.404;2023-04-15T05:54:13;101376.13;;;6.00;89.12
75414;BME280;64758;52.122;5.404;2023-04-15T05:56:39;101387.19;;;6.04;89.44
75414;BME280;64758;52.122;5.404;2023-04-15T05:59:06;101382.78;;;5.95;89.67
75414;BME280;64758;52.122;5.404;2023-04-15T06:01:32;101392.50;;;5.94;89.57
75414;BME280;64758;52.122;5.404;2023-04-15T06:03:59;101391.13;;;5.90;89.99
75414;BME280;64758;52.122;5.404;2023-04-15T06:06:26;101388.09;;;5.85;90.07
75414;BME280;64758;52.122;5.404;2023-04-15T06:08:53;101389.47;;;5.80;90.45
75414;BME280;64758;52.122;5.404;2023-04-15T06:11:21;101403.88;;;5.95;91.16
75414;BME280;64758;52.122;5.404;2023-04-15T06:13:47;101406.72;;;6.11;91.01
75414;BME280;64758;52.122;5.404;2023-04-15T06:16:14;101407.53;;;6.21;90.70
75414;BME280;64758;52.122;5.404;2023-04-15T06:18:40;101406.44;;;6.14;90.96
75414;BME280;64758;52.122;5.404;2023-04-15T06:21:07;101419.03;;;6.29;90.71
75414;BME280;64758;52.122;5.404;2023-04-15T06:23:34;101415.38;;;6.39;90.46
75414;BME280;64758;52.122;5.404;2023-04-15T06:26:01;101418.75;;;6.59;90.07
75414;BME280;64758;52.122;5.404;2023-04-15T06:28:28;101424.13;;;6.67;90.13
75414;BME280;64758;52.122;5.404;2023-04-15T06:30:55;101423.81;;;6.70;90.62
75414;BME280;64758;52.122;5.404;2023-04-15T06:33:22;101432.22;;;6.83;90.74
75414;BME280;64758;52.122;5.404;2023-04-15T06:35:48;101424.28;;;6.92;90.71
75414;BME280;64758;52.122;5.404;2023-04-15T06:38:15;101427.00;;;7.18;90.28
75414;BME280;64758;52.122;5.404;2023-04-15T06:40:42;101442.41;;;7.40;89.66
75414;BME280;64758;52.122;5.404;2023-04-15T06:43:08;101444.31;;;7.47;89.84
75414;BME280;64758;52.122;5.404;2023-04-15T06:45:35;101451.16;;;7.57;90.24
75414;BME280;64758;52.122;5.404;2023-04-15T06:48:02;101445.78;;;7.67;90.29
75414;BME280;64758;52.122;5.404;2023-04-15T06:50:28;101463.97;;;7.70;89.59
75414;BME280;64758;52.122;5.404;2023-04-15T06:52:55;101471.03;;;7.61;88.99
75414;BME280;64758;52.122;5.404;2023-04-15T06:55:22;101467.41;;;7.62;89.34
75414;BME280;64758;52.122;5.404;2023-04-15T06:57:48;101476.69;;;7.66;89.56
75414;BME280;64758;52.122;5.404;2023-04-15T07:00:15;101477.56;;;7.75;90.13
75414;BME280;64758;52.122;5.404;2023-04-15T07:02:43;101490.31;;;7.97;90.40
75414;BME280;64758;52.122;5.404;2023-04-15T07:05:10;101474.16;;;8.17;89.55
75414;BME280;64758;52.122;5.404;2023-04-15T07:07:36;101489.25;;;8.50;89.62
75414;BME280;64758;52.122;5.404;2023-04-15T07:10:04;101491.47;;;8.63;87.81
75414;BME280;64758;52.122;5.404;2023-04-15T07:12:30;101488.34;;;8.67;88.09
75414;BME280;64758;52.122;5.404;2023-04-15T07:14:57;101488.25;;;8.84;88.23
75414;BME280;64758;52.122;5.404;2023-04-15T07:17:23;101496.75;;;8.88;86.43
75414;BME280;64758;52.122;5.404;2023-04-15T07:19:50;101505.59;;;8.71;87.24
75414;BME280;64758;52.122;5.404;2023-04-15T07:22:16;101505.88;;;8.60;88.14
75414;BME280;64758;52.122;5.404;2023-04-15T07:24:43;101513.44;;;8.55;88.49
75414;BME280;64758;52.122;5.404;2023-04-15T07:27:09;101519.72;;;8.54;88.02
75414;BME280;64758;52.122;5.404;2023-04-15T07:29:36;101514.94;;;8.58;88.03
75414;BME280;64758;52.122;5.404;2023-04-15T07:32:03;101510.66;;;8.65;88.90
75414;BME280;64758;52.122;5.404;2023-04-15T07:34:30;101518.34;;;8.76;88.84
75414;BME280;64758;52.122;5.404;2023-04-15T07:36:58;101518.88;;;8.79;87.29
75414;BME280;64758;52.122;5.404;2023-04-15T07:39:25;101518.59;;;8.90;87.83
75414;BME280;64758;52.122;5.404;2023-04-15T07:41:52;101516.13;;;8.96;86.21
75414;BME280;64758;52.122;5.404;2023-04-15T07:44:19;101519.31;;;9.08;86.66
75414;BME280;64758;52.122;5.404;2023-04-15T07:46:46;101533.59;;;9.23;84.76
75414;BME280;64758;52.122;5.404;2023-04-15T07:49:13;101536.28;;;9.31;83.75
75414;BME280;64758;52.122;5.404;2023-04-15T07:51:39;101535.66;;;9.45;84.26
75414;BME280;64758;52.122;5.404;2023-04-15T07:54:06;101535.72;;;9.61;83.67
75414;BME280;64758;52.122;5.404;2023-04-15T07:56:32;101527.94;;;9.67;83.25
75414;BME280;64758;52.122;5.404;2023-04-15T07:58:59;101546.00;;;9.72;82.10
75414;BME280;64758;52.122;5.404;2023-04-15T08:01:28;101541.03;;;9.77;80.72
75414;BME280;64758;52.122;5.404;2023-04-15T08:03:54;101548.69;;;9.80;79.45
75414;BME280;64758;52.122;5.404;2023-04-15T08:06:21;101544.69;;;9.84;78.85
75414;BME280;64758;52.122;5.404;2023-04-15T08:08:48;101551.34;;;9.88;78.09
75414;BME280;64758;52.122;5.404;2023-04-15T08:11:14;101555.84;;;9.87;77.73
75414;BME280;64758;52.122;5.404;2023-04-15T08:13:41;101555.00;;;9.87;77.24
75414;BME280;64758;52.122;5.404;2023-04-15T08:16:19;101561.28;;;9.94;78.28
75414;BME280;64758;52.122;5.404;2023-04-15T08:18:47;101551.03;;;9.99;76.68
75414;BME280;64758;52.122;5.404;2023-04-15T08:21:15;101564.00;;;10.10;76.83
75414;BME280;64758;52.122;5.404;2023-04-15T08:23:42;101570.31;;;10.09;75.01
75414;BME280;64758;52.122;5.404;2023-04-15T08:26:09;101568.50;;;10.09;75.57
75414;BME280;64758;52.122;5.404;2023-04-15T08:28:40;101569.31;;;10.17;73.98
75414;BME280;64758;52.122;5.404;2023-04-15T08:31:07;101572.44;;;10.29;75.04
75414;BME280;64758;52.122;5.404;2023-04-15T08:33:34;101575.94;;;10.37;74.57
75414;BME280;64758;52.122;5.404;2023-04-15T08:36:01;101578.28;;;10.32;74.34
75414;BME280;64758;52.122;5.404;2023-04-15T08:38:28;101577.75;;;10.29;73.97
75414;BME280;64758;52.122;5.404;2023-04-15T08:40:57;101588.38;;;10.37;72.96
75414;BME280;64758;52.122;5.404;2023-04-15T08:43:27;101589.03;;;10.31;72.81
75414;BME280;64758;52.122;5.404;2023-04-15T08:45:56;101586.72;;;10.28;73.41
75414;BME280;64758;52.122;5.404;2023-04-15T08:48:27;101591.03;;;10.29;74.63
75414;BME280;64758;52.122;5.404;2023-04-15T08:50:54;101599.19;;;10.35;74.83
75414;BME280;64758;52.122;5.404;2023-04-15T08:53:21;101626.72;;;10.34;72.14
75414;BME280;64758;52.122;5.404;2023-04-15T08:55:51;101611.78;;;10.17;73.09
75414;BME280;64758;52.122;5.404;2023-04-15T08:58:18;101613.13;;;10.21;74.13
75414;BME280;64758;52.122;5.404;2023-04-15T09:00:45;101616.13;;;10.34;74.90
75414;BME280;64758;52.122;5.404;2023-04-15T09:03:11;101627.22;;;10.46;73.51
75414;BME280;64758;52.122;5.404;2023-04-15T09:05:39;101616.13;;;10.50;74.30
75414;BME280;64758;52.122;5.404;2023-04-15T09:08:05;101628.88;;;10.63;72.68
75414;BME280;64758;52.122;5.404;2023-04-15T09:10:32;101635.38;;;10.68;72.97
75414;BME280;64758;52.122;5.404;2023-04-15T09:12:59;101630.53;;;10.64;71.98
75414;BME280;64758;52.122;5.404;2023-04-15T09:15:27;101635.03;;;10.63;72.45
75414;BME280;64758;52.122;5.404;2023-04-15T09:17:55;101657.75;;;10.74;73.07
75414;BME280;64758;52.122;5.404;2023-04-15T09:20:22;101653.94;;;10.84;72.98
75414;BME280;64758;52.122;5.404;2023-04-15T09:22:49;101648.31;;;10.87;73.82
75414;BME280;64758;52.122;5.404;2023-04-15T09:27:53;101661.59;;;10.87;72.29
75414;BME280;64758;52.122;5.404;2023-04-15T09:30:19;101664.59;;;10.84;73.31
75414;BME280;64758;52.122;5.404;2023-04-15T09:32:50;101655.94;;;10.74;73.98
75414;BME280;64758;52.122;5.404;2023-04-15T09:35:18;101677.03;;;10.76;72.00
75414;BME280;64758;52.122;5.404;2023-04-15T09:37:45;101685.19;;;10.74;72.36
75414;BME280;64758;52.122;5.404;2023-04-15T09:40:12;101668.91;;;10.69;72.82
75414;BME280;64758;52.122;5.404;2023-04-15T09:42:53;101678.88;;;10.83;73.90
75414;BME280;64758;52.122;5.404;2023-04-15T09:45:20;101666.25;;;10.93;74.35
75414;BME280;64758;52.122;5.404;2023-04-15T09:47:47;101673.53;;;10.99;72.91
75414;BME280;64758;52.122;5.404;2023-04-15T09:50:14;101681.66;;;10.98;72.56
75414;BME280;64758;52.122;5.404;2023-04-15T09:52:42;101679.84;;;10.98;71.83
75414;BME280;64758;52.122;5.404;2023-04-15T09:55:10;101681.19;;;10.94;72.32
75414;BME280;64758;52.122;5.404;2023-04-15T09:57:38;101699.44;;;11.05;70.64
75414;BME280;64758;52.122;5.404;2023-04-15T10:00:08;101685.16;;;11.06;69.79
75414;BME280;64758;52.122;5.404;2023-04-15T10:02:37;101681.00;;;11.04;70.36
75414;BME280;64758;52.122;5.404;2023-04-15T10:05:05;101682.50;;;11.14;70.29
75414;BME280;64758;52.122;5.404;2023-04-15T10:07:33;101682.44;;;11.38;71.53
75414;BME280;64758;52.122;5.404;2023-04-15T10:10:00;101693.22;;;11.37;71.04
75414;BME280;64758;52.122;5.404;2023-04-15T10:12:30;101692.75;;;11.33;72.62
75414;BME280;64758;52.122;5.404;2023-04-15T10:15:03;101695.06;;;11.44;71.02
75414;BME280;64758;52.122;5.404;2023-04-15T10:17:32;101700.31;;;11.52;69.33
75414;BME280;64758;52.122;5.404;2023-04-15T10:20:01;101710.16;;;11.59;69.43
75414;BME280;64758;52.122;5.404;2023-04-15T10:22:30;101698.00;;;11.57;69.31
75414;BME280;64758;52.122;5.404;2023-04-15T10:24:58;101696.63;;;11.69;70.98
75414;BME280;64758;52.122;5.404;2023-04-15T10:27:27;101699.09;;;11.78;69.78
75414;BME280;64758;52.122;5.404;2023-04-15T10:29:55;101696.59;;;11.77;69.12
75414;BME280;64758;52.122;5.404;2023-04-15T10:32:24;101700.53;;;11.89;70.54
75414;BME280;64758;52.122;5.404;2023-04-15T10:34:51;101696.44;;;12.09;72.30
75414;BME280;64758;52.122;5.404;2023-04-15T10:37:22;101697.41;;;12.16;69.64
75414;BME280;64758;52.122;5.404;2023-04-15T10:39:48;101702.53;;;12.25;70.31
75414;BME280;64758;52.122;5.404;2023-04-15T10:42:17;101707.97;;;12.32;69.03
75414;BME280;64758;52.122;5.404;2023-04-15T10:44:49;101706.44;;;12.07;67.66
75414;BME280;64758;52.122;5.404;2023-04-15T10:47:20;101704.13;;;11.73;68.50
75414;BME280;64758;52.122;5.404;2023-04-15T10:50:00;101722.25;;;11.70;67.37
75414;BME280;64758;52.122;5.404;2023-04-15T10:52:28;101718.53;;;11.87;67.53
75414;BME280;64758;52.122;5.404;2023-04-15T10:55:21;101721.47;;;12.00;67.77
75414;BME280;64758;52.122;5.404;2023-04-15T10:57:53;101718.75;;;12.08;69.25
75414;BME280;64758;52.122;5.404;2023-04-15T11:00:24;101720.47;;;12.01;69.27
75414;BME280;64758;52.122;5.404;2023-04-15T11:03:20;101750.56;;;12.09;68.83
75414;BME280;64758;52.122;5.404;2023-04-15T11:05:59;101732.72;;;12.10;68.35
75414;BME280;64758;52.122;5.404;2023-04-15T11:08:53;101736.19;;;12.18;67.17
75414;BME280;64758;52.122;5.404;2023-04-15T11:11:20;101725.00;;;12.23;67.67
75414;BME280;64758;52.122;5.404;2023-04-15T11:13:50;101722.84;;;12.26;66.65
75414;BME280;64758;52.122;5.404;2023-04-15T11:16:20;101743.25;;;12.34;64.00
75414;BME280;64758;52.122;5.404;2023-04-15T11:18:54;101746.31;;;12.23;65.10
75414;BME280;64758;52.122;5.404;2023-04-15T11:21:24;101739.22;;;12.38;68.41
75414;BME280;64758;52.122;5.404;2023-04-15T11:23:51;101745.81;;;12.50;65.38
75414;BME280;64758;52.122;5.404;2023-04-15T11:26:18;101746.13;;;12.55;64.92
75414;BME280;64758;52.122;5.404;2023-04-15T11:28:44;101740.16;;;12.53;64.28
75414;BME280;64758;52.122;5.404;2023-04-15T11:31:16;101743.50;;;12.47;64.86
75414;BME280;64758;52.122;5.404;2023-04-15T11:36:11;101746.31;;;12.23;66.89
75414;BME280;64758;52.122;5.404;2023-04-15T11:38:42;101741.84;;;12.23;69.09
75414;BME280;64758;52.122;5.404;2023-04-15T11:41:10;101752.91;;;12.35;67.50
75414;BME280;64758;52.122;5.404;2023-04-15T11:43:37;101745.25;;;12.32;68.19
75414;BME280;64758;52.122;5.404;2023-04-15T11:46:03;101738.19;;;12.47;64.98
75414;BME280;64758;52.122;5.404;2023-04-15T11:48:35;101737.88;;;12.42;67.05
75414;BME280;64758;52.122;5.404;2023-04-15T11:51:04;101749.72;;;12.39;65.79
75414;BME280;64758;52.122;5.404;2023-04-15T11:53:47;101765.91;;;12.30;66.29
75414;BME280;64758;52.122;5.404;2023-04-15T11:56:19;101758.63;;;12.24;65.74
75414;BME280;64758;52.122;5.404;2023-04-15T11:58:47;101764.72;;;12.40;66.15
75414;BME280;64758;52.122;5.404;2023-04-15T12:01:16;101772.00;;;12.46;64.30
75414;BME280;64758;52.122;5.404;2023-04-15T12:03:44;101784.28;;;12.55;64.76
75414;BME280;64758;52.122;5.404;2023-04-15T12:06:19;101777.28;;;12.54;65.19
75414;BME280;64758;52.122;5.404;2023-04-15T12:16:56;101808.94;;;12.57;65.20
75414;BME280;64758;52.122;5.404;2023-04-15T12:19:27;101819.19;;;12.30;65.54
75414;BME280;64758;52.122;5.404;2023-04-15T12:22:00;101802.56;;;12.28;65.57
75414;BME280;64758;52.122;5.404;2023-04-15T12:24:30;101802.56;;;12.28;65.42
75414;BME280;64758;52.122;5.404;2023-04-15T12:27:01;101794.22;;;12.31;65.96
75414;BME280;64758;52.122;5.404;2023-04-15T12:29:29;101798.69;;;12.38;68.10
75414;BME280;64758;52.122;5.404;2023-04-15T12:32:03;101810.34;;;12.37;67.07
75414;BME280;64758;52.122;5.404;2023-04-15T12:34:45;101825.41;;;12.22;68.08
75414;BME280;64758;52.122;5.404;2023-04-15T12:37:15;101803.94;;;12.16;67.47
75414;BME280;64758;52.122;5.404;2023-04-15T12:39:43;101811.53;;;12.35;66.64
75414;BME280;64758;52.122;5.404;2023-04-15T12:42:10;101843.19;;;12.30;66.60
75414;BME280;64758;52.122;5.404;2023-04-15T12:44:37;101820.16;;;11.98;67.47
75414;BME280;64758;52.122;5.404;2023-04-15T12:47:05;101836.47;;;12.03;67.38
75414;BME280;64758;52.122;5.404;2023-04-15T12:49:32;101828.28;;;12.05;66.52
75414;BME280;64758;52.122;5.404;2023-04-15T12:52:00;101833.56;;;12.21;67.80
75414;BME280;64758;52.122;5.404;2023-04-15T12:54:27;101829.63;;;12.01;67.63
75414;BME280;64758;52.122;5.404;2023-04-15T12:56:55;101836.28;;;12.05;68.34
75414;BME280;64758;52.122;5.404;2023-04-15T12:59:22;101834.59;;;12.12;67.67
75414;BME280;64758;52.122;5.404;2023-04-15T13:01:52;101862.38;;;12.17;65.79
75414;BME280;64758;52.122;5.404;2023-04-15T13:04:19;101851.91;;;12.08;66.78
75414;BME280;64758;52.122;5.404;2023-04-15T13:06:46;101853.22;;;12.20;66.30
75414;BME280;64758;52.122;5.404;2023-04-15T13:09:13;101859.19;;;12.22;66.87
75414;BME280;64758;52.122;5.404;2023-04-15T13:11:41;101857.59;;;12.05;67.75
75414;BME280;64758;52.122;5.404;2023-04-15T13:14:08;101875.75;;;11.93;69.27